Terminal Aerodrome Forecast
Issued by NWS Wilmington, OH

Current Version | Previous Version | Graphics & Text | Print | Product List | Glossary On
Versions: 1 2 3 4 5 6 7 8 9 10 11 12 13 14 15 16 17 18 19 20 21 22 23 24 25 26
000
FTUS41 KILN 050533
TAFILN
TAF
KILN 050533Z 0506/0606 29006KT P6SM OVC050
      TEMPO 0506/0508 SCT050
     FM050800 31005KT P6SM OVC015
     FM051000 32005KT P6SM OVC006
     FM051400 34010KT P6SM BKN025
     FM052000 35013G22KT P6SM VCSH BKN040
     FM060100 34008KT P6SM SCT045=

USA.gov is the U.S. government's official web portal to all federal, state and local government web resources and services.